Frederick, MD

11:44 PM EST on February 07, 2016 (GMT -0500)
APRSWXNET | | Change Station
CLOSE
Current Station
Personal Weather Station
Location: Myersville, MD
Elevation: 1689 ft
Nearby Weather Stations

Elev 1689 ft 39.53 °N, 77.50 °W | Updated 17 days ago

Partly Cloudy
Partly Cloudy
32 °F
Feels Like 32 °F
N
3
Wind Variable Wind from NNE
Gusts mph

Today
High -- | Low -- °F
--% Chance of Precip.
Yesterday
High -- | Low -- °F
Precip. -- in
Pressure 29.91 in
Visibility 10.0 miles
Clouds Clear
Dew Point 23 °F
Humidity 69%
Rainfall in
Snow Depth Not available.
7:12 AM 5:36 PM
Waning Crescent, 0% visible
METAR KFDK 080425Z AUTO 00000KT 10SM CLR M01/M03 A2991 RMK AO2
Pressure 29.91 in
Visibility 10.0 miles
Clouds Clear
Dew Point 23 °F
Humidity 69%
Rainfall in
Snow Depth Not available.
7:12 AM 5:36 PM
Waning Crescent, 0% visible
METAR KFDK 080425Z AUTO 00000KT 10SM CLR M01/M03 A2991 RMK AO2

10-Day Weather Forecast

Almanac

Astronomy

Feb. 07, 2016 Rise Set
Actual Time
Civil Twilight
Nautical Twilight
Astronomical Twilight
Moon
Length of Visible Light
Length of Day
Tomorrow will be .
, % of the Moon is Illuminated

Today's Extremes

State Highs State Lows

Community

WunderPhotos

Upload Photos

1,891,382 photos uploaded!

WunderBlog® & News

Nearby

Air Quality

  Air Quality AQ Index Pollutant
Not available.

Snow Depth

Station Depth Elevation

Earthquake Activity

City Distance Mag. Time & Date
Minimum magnitude displayed is 2.5.

Coastal Water Temperatures

Place Temperature

Stations

Nearby Weather Stations

Station Location Temp. Windchill Dew Point Humidity Wind Precip. Elev Updated Type
                   

Watches & Warnings

There are currently no watches in effect.